createdAt,value
2018-04-17T00:00:58.158Z,16.67
2018-04-17T00:03:26.546Z,16.07
2018-04-17T00:05:54.187Z,18.70
2018-04-17T00:08:21.802Z,16.40
2018-04-17T00:10:49.400Z,15.63
2018-04-17T00:13:17.010Z,18.50
2018-04-17T00:18:18.553Z,18.33
2018-04-17T00:23:18.821Z,18.40
2018-04-17T00:25:46.422Z,19.90
2018-04-17T00:28:14.018Z,17.97
2018-04-17T00:30:41.636Z,17.93
2018-04-17T00:33:09.242Z,19.07
2018-04-17T00:35:36.843Z,16.47
2018-04-17T00:38:05.283Z,15.37
2018-04-17T00:40:32.953Z,19.90
2018-04-17T00:43:01.318Z,17.67
2018-04-17T00:45:29.694Z,16.17
2018-04-17T00:47:58.066Z,15.23
2018-04-17T00:50:25.681Z,16.27
2018-04-17T00:52:53.329Z,18.67
2018-04-17T00:55:20.979Z,18.27
2018-04-17T00:57:48.574Z,16.03
2018-04-17T01:00:16.182Z,17.13
2018-04-17T01:02:43.784Z,15.40
2018-04-17T01:05:11.382Z,16.23
2018-04-17T01:07:38.992Z,16.87
2018-04-17T01:10:06.598Z,15.20
2018-04-17T01:12:34.205Z,22.10
2018-04-17T01:15:02.583Z,15.90
2018-04-17T01:17:30.178Z,15.47
2018-04-17T01:19:57.918Z,16.43
2018-04-17T01:22:25.522Z,14.43
2018-04-17T01:24:53.127Z,15.37
2018-04-17T01:27:20.723Z,17.03
2018-04-17T01:29:48.331Z,14.67
2018-04-17T01:32:16.694Z,14.83
2018-04-17T01:34:44.302Z,19.10
2018-04-17T01:37:11.911Z,17.27
2018-04-17T01:39:39.531Z,13.97
2018-04-17T01:42:07.126Z,13.83
2018-04-17T01:44:34.754Z,16.07
2018-04-17T01:47:02.386Z,13.93
2018-04-17T01:49:29.985Z,14.57
2018-04-17T01:51:57.606Z,12.77
2018-04-17T01:54:25.216Z,13.27
2018-04-17T01:56:52.838Z,17.50
2018-04-17T01:59:20.450Z,17.07
2018-04-17T02:04:51.153Z,14.33
2018-04-17T02:07:18.766Z,17.50
2018-04-17T02:09:46.366Z,16.90
2018-04-17T02:12:14.014Z,19.23
2018-04-17T02:14:41.610Z,17.53
2018-04-17T02:17:09.978Z,16.67
2018-04-17T02:19:37.590Z,15.40
2018-04-17T02:22:05.191Z,25.62
2018-04-17T02:24:32.791Z,22.17
2018-04-17T02:27:00.410Z,16.43
2018-04-17T02:29:28.015Z,18.83
2018-04-17T02:31:55.634Z,17.80
2018-04-17T02:34:23.271Z,19.23
2018-04-17T02:36:50.868Z,19.07
2018-04-17T02:39:19.245Z,20.87
2018-04-17T02:41:47.627Z,20.90
2018-04-17T02:44:15.997Z,16.87
2018-04-17T02:46:43.601Z,20.50
2018-04-17T02:49:11.207Z,22.17
2018-04-17T02:51:39.710Z,17.73
2018-04-17T02:54:08.073Z,17.17
2018-04-17T02:56:35.686Z,17.70
2018-04-17T02:59:03.286Z,20.77
2018-04-17T03:01:30.886Z,18.70
2018-04-17T03:03:58.490Z,16.97
2018-04-17T03:06:26.093Z,17.87
2018-04-17T03:08:53.730Z,18.07
2018-04-17T03:11:21.353Z,17.63
2018-04-17T03:13:48.978Z,17.03
2018-04-17T03:16:17.354Z,21.80
2018-04-17T03:18:45.726Z,17.40
2018-04-17T03:21:14.087Z,19.23
2018-04-17T03:23:41.699Z,19.27
2018-04-17T03:26:09.309Z,20.47
2018-04-17T03:28:36.920Z,21.17
2018-04-17T03:31:04.515Z,17.93
2018-04-17T03:33:32.130Z,19.47
2018-04-17T03:35:59.730Z,23.47
2018-04-17T03:38:27.327Z,18.03
2018-04-17T03:40:55.731Z,17.37
2018-04-17T03:43:23.326Z,20.30
2018-04-17T03:45:50.918Z,22.27
2018-04-17T03:48:19.327Z,24.30
2018-04-17T03:50:46.923Z,24.70
2018-04-17T03:53:14.525Z,21.53
2018-04-17T03:55:42.903Z,20.83
2018-04-17T03:58:11.267Z,20.93
2018-04-17T04:00:38.882Z,18.07
2018-04-17T04:03:06.486Z,18.83
2018-04-17T04:05:34.085Z,22.13
2018-04-17T04:08:01.693Z,19.57
2018-04-17T04:12:52.165Z,23.27
2018-04-17T04:15:19.754Z,21.43
2018-04-17T04:17:59.216Z,24.53
2018-04-17T04:20:39.310Z,20.43
2018-04-17T04:23:18.690Z,19.57
2018-04-17T04:29:08.472Z,19.77
2018-04-17T04:31:36.078Z,26.47
2018-04-17T04:34:03.686Z,24.90
2018-04-17T04:36:31.333Z,39.07
2018-04-17T04:38:58.925Z,32.30
2018-04-17T04:41:26.531Z,28.70
2018-04-17T04:43:54.143Z,39.43
2018-04-17T04:46:21.763Z,40.30
2018-04-17T04:48:49.382Z,43.63
2018-04-17T04:51:17.031Z,41.07
2018-04-17T04:53:44.657Z,45.00
2018-04-17T04:56:12.277Z,46.80
2018-04-17T04:58:40.675Z,37.30
2018-04-17T05:01:08.274Z,35.40
2018-04-17T05:03:35.876Z,33.43
2018-04-17T05:06:04.331Z,30.10
2018-04-17T05:08:31.935Z,31.20
2018-04-17T05:10:59.546Z,26.33
2018-04-17T05:13:27.158Z,23.83
2018-04-17T05:15:54.785Z,22.83
2018-04-17T05:18:22.415Z,25.97
2018-04-17T05:20:50.047Z,24.07
2018-04-17T05:23:17.658Z,19.60
2018-04-17T05:25:45.258Z,24.93
2018-04-17T05:28:12.877Z,19.63
2018-04-17T05:30:40.530Z,21.03
2018-04-17T05:33:08.130Z,19.10
2018-04-17T05:35:36.527Z,19.67
2018-04-17T05:38:04.138Z,17.53
2018-04-17T05:40:31.739Z,28.17
2018-04-17T05:42:59.358Z,22.43
2018-04-17T05:45:26.957Z,19.20
2018-04-17T05:47:54.563Z,20.60
2018-04-17T05:50:22.194Z,20.20
2018-04-17T05:52:49.797Z,18.03
2018-04-17T05:55:17.401Z,18.83
2018-04-17T05:57:45.013Z,19.73
2018-04-17T06:00:12.608Z,16.93
2018-04-17T06:02:40.980Z,18.00
2018-04-17T06:05:09.391Z,20.57
2018-04-17T06:07:36.990Z,19.43
2018-04-17T06:10:04.594Z,18.30
2018-04-17T06:12:32.210Z,17.70
2018-04-17T06:14:59.806Z,19.73
2018-04-17T06:17:27.411Z,19.57
2018-04-17T06:19:55.022Z,17.87
2018-04-17T06:22:24.031Z,18.10
2018-04-17T06:24:51.636Z,18.70
2018-04-17T06:27:19.254Z,17.70
2018-04-17T06:29:46.867Z,16.87
2018-04-17T06:32:14.466Z,19.37
2018-04-17T06:34:42.845Z,19.57
2018-04-17T06:37:10.496Z,18.07
2018-04-17T06:39:38.099Z,17.93
2018-04-17T06:42:05.810Z,15.83
2018-04-17T06:44:34.166Z,18.47
2018-04-17T06:47:01.763Z,17.57
2018-04-17T06:49:30.135Z,24.60
2018-04-17T06:51:57.767Z,17.37
2018-04-17T06:54:26.322Z,14.97
2018-04-17T06:56:53.938Z,16.07
2018-04-17T06:59:22.298Z,19.17
2018-04-17T07:01:49.899Z,15.77
2018-04-17T07:04:17.508Z,13.23
2018-04-17T07:06:45.134Z,13.70
2018-04-17T07:09:12.739Z,16.60
2018-04-17T07:11:40.403Z,13.83
2018-04-17T07:14:07.984Z,12.57
2018-04-17T07:16:35.591Z,13.60
2018-04-17T07:19:03.982Z,13.97
2018-04-17T07:21:33.118Z,13.13
2018-04-17T07:24:00.725Z,13.37
2018-04-17T07:26:28.388Z,13.93
2018-04-17T07:28:56.012Z,13.17
2018-04-17T07:31:23.610Z,13.63
2018-04-17T07:33:51.218Z,13.87
2018-04-17T07:36:19.573Z,9.97
2018-04-17T07:38:47.208Z,13.67
2018-04-17T07:41:14.868Z,14.67
2018-04-17T07:43:42.466Z,15.83
2018-04-17T07:46:10.071Z,14.63
2018-04-17T07:48:49.568Z,12.53
2018-04-17T07:51:17.932Z,14.13
2018-04-17T07:53:45.538Z,12.90
2018-04-17T07:56:13.146Z,13.07
2018-04-17T07:58:40.752Z,13.30
2018-04-17T08:01:09.155Z,12.43
2018-04-17T08:03:36.787Z,12.30
2018-04-17T08:06:04.391Z,11.90
2018-04-17T08:08:32.007Z,13.70
2018-04-17T08:10:59.631Z,12.23
2018-04-17T08:13:27.230Z,12.47
2018-04-17T08:15:54.827Z,12.83
2018-04-17T08:18:22.471Z,15.80
2018-04-17T08:20:50.074Z,13.83
2018-04-17T08:23:17.675Z,11.50
2018-04-17T08:25:45.293Z,12.23
2018-04-17T08:28:12.909Z,11.43
2018-04-17T08:30:40.510Z,10.77
2018-04-17T08:33:08.139Z,10.90
2018-04-17T08:35:35.789Z,10.10
2018-04-17T08:38:03.414Z,7.87
2018-04-17T08:40:32.541Z,8.83
2018-04-17T08:43:00.138Z,9.10
2018-04-17T08:45:27.787Z,8.57
2018-04-17T08:47:55.431Z,7.00
2018-04-17T08:50:23.054Z,8.00
2018-04-17T08:52:51.410Z,7.60
2018-04-17T08:55:19.062Z,8.07
2018-04-17T08:57:46.661Z,7.37
2018-04-17T09:00:15.022Z,8.17
2018-04-17T09:02:42.658Z,6.77
2018-04-17T09:05:10.326Z,8.35
2018-04-17T09:07:37.986Z,8.07
2018-04-17T09:10:05.626Z,6.60
2018-04-17T09:12:33.293Z,7.07
2018-04-17T09:15:00.897Z,6.20
2018-04-17T09:17:28.493Z,5.07
2018-04-17T09:19:56.082Z,4.87
2018-04-17T09:22:23.683Z,4.90
2018-04-17T09:24:52.058Z,4.70
2018-04-17T09:27:20.420Z,4.57
2018-04-17T09:29:48.782Z,5.33
2018-04-17T09:32:16.403Z,5.23
2018-04-17T09:34:44.004Z,5.97
2018-04-17T09:37:11.647Z,5.30
2018-04-17T09:39:39.255Z,5.97
2018-04-17T09:42:06.870Z,5.93
2018-04-17T09:44:34.715Z,6.00
2018-04-17T09:47:02.329Z,6.40
2018-04-17T09:49:29.938Z,7.43
2018-04-17T09:51:57.542Z,7.13
2018-04-17T09:54:25.159Z,7.13
2018-04-17T09:56:52.795Z,6.73
2018-04-17T09:59:20.414Z,6.97
2018-04-17T10:01:48.026Z,8.10
2018-04-17T10:04:15.626Z,8.40
2018-04-17T10:06:43.221Z,9.93
2018-04-17T10:09:11.606Z,10.00
2018-04-17T10:11:39.206Z,10.73
2018-04-17T10:14:06.818Z,11.53
2018-04-17T10:16:35.218Z,11.37
2018-04-17T10:19:02.826Z,10.97
2018-04-17T10:21:30.467Z,11.37
2018-04-17T10:23:58.082Z,12.13
2018-04-17T10:26:26.463Z,12.17
2018-04-17T10:28:54.851Z,10.73
2018-04-17T10:31:22.469Z,12.73
2018-04-17T10:33:50.083Z,11.67
2018-04-17T10:36:17.733Z,9.67
2018-04-17T10:38:45.358Z,10.40
2018-04-17T10:41:12.991Z,11.00
2018-04-17T10:43:40.597Z,12.40
2018-04-17T10:46:08.216Z,11.50
2018-04-17T10:48:35.837Z,10.07
2018-04-17T10:51:03.452Z,10.13
2018-04-17T10:53:31.066Z,9.40
2018-04-17T10:55:58.670Z,9.77
2018-04-17T10:58:26.278Z,10.37
2018-04-17T11:00:53.890Z,9.90
2018-04-17T11:03:21.499Z,9.40
2018-04-17T11:05:49.155Z,8.77
2018-04-17T11:08:16.778Z,7.90
2018-04-17T11:10:44.410Z,8.00
2018-04-17T11:13:12.017Z,7.30
2018-04-17T11:15:39.741Z,8.00
2018-04-17T11:18:07.338Z,8.03
2018-04-17T11:20:35.707Z,7.80
2018-04-17T11:23:03.346Z,8.63
2018-04-17T11:25:30.946Z,7.03
2018-04-17T11:27:58.593Z,7.83
2018-04-17T11:30:26.238Z,7.30
2018-04-17T11:32:53.849Z,6.70
2018-04-17T11:35:21.486Z,6.33
2018-04-17T11:37:49.868Z,7.00
2018-04-17T11:40:18.238Z,7.00
2018-04-17T11:42:45.860Z,6.47
2018-04-17T11:45:13.466Z,5.57
2018-04-17T11:47:41.866Z,7.00
2018-04-17T11:50:09.493Z,6.40
2018-04-17T11:52:37.866Z,6.87
2018-04-17T11:55:05.531Z,7.90
2018-04-17T11:57:33.208Z,7.67
2018-04-17T12:00:01.582Z,8.27
2018-04-17T12:02:29.949Z,7.70
2018-04-17T12:04:57.560Z,7.63
2018-04-17T12:07:25.177Z,7.33
2018-04-17T12:09:53.551Z,7.67
2018-04-17T12:12:21.915Z,8.27
2018-04-17T12:14:49.522Z,7.30
2018-04-17T12:17:17.137Z,8.10
2018-04-17T12:19:44.738Z,8.27
2018-04-17T12:22:12.353Z,9.33
2018-04-17T12:24:39.984Z,10.63
2018-04-17T12:27:07.581Z,10.00
2018-04-17T12:29:35.197Z,10.60
2018-04-17T12:32:03.575Z,10.80
2018-04-17T12:34:31.198Z,10.73
2018-04-17T12:36:59.590Z,11.40
2018-04-17T12:39:27.191Z,11.27
2018-04-17T12:41:54.795Z,10.93
2018-04-17T12:44:22.470Z,11.97
2018-04-17T12:46:50.106Z,11.53
2018-04-17T12:49:17.723Z,11.60
2018-04-17T12:51:46.116Z,11.70
2018-04-17T12:54:13.800Z,12.83
2018-04-17T12:56:41.422Z,11.67
2018-04-17T12:59:09.038Z,12.70
2018-04-17T13:01:37.409Z,11.70
2018-04-17T13:04:05.781Z,12.20
2018-04-17T13:06:33.450Z,13.30
2018-04-17T13:09:01.063Z,12.23
2018-04-17T13:11:29.432Z,12.80
2018-04-17T13:13:57.117Z,12.90
2018-04-17T13:16:24.719Z,13.00
2018-04-17T13:18:52.373Z,12.53
2018-04-17T13:21:20.757Z,13.13
2018-04-17T13:23:49.146Z,12.47
2018-04-17T13:26:16.778Z,12.60
2018-04-17T13:28:44.390Z,13.20
2018-04-17T13:31:12.034Z,12.50
2018-04-17T13:33:39.636Z,14.10
2018-04-17T13:36:07.262Z,14.10
2018-04-17T13:38:34.874Z,14.40
2018-04-17T13:41:02.490Z,13.90
2018-04-17T13:43:30.105Z,15.40
2018-04-17T13:45:57.720Z,15.23
2018-04-17T13:48:25.332Z,14.67
2018-04-17T13:50:52.945Z,14.90
2018-04-17T13:53:21.376Z,15.37
2018-04-17T13:55:49.746Z,15.13
2018-04-17T13:58:18.163Z,16.60
2018-04-17T14:00:45.780Z,16.57
2018-04-17T14:03:13.387Z,17.90
2018-04-17T14:05:41.002Z,17.63
2018-04-17T14:08:08.642Z,17.27
2018-04-17T14:10:36.250Z,18.30
2018-04-17T14:13:03.866Z,17.43
2018-04-17T14:15:31.466Z,17.37
2018-04-17T14:17:59.079Z,17.60
2018-04-17T14:20:26.699Z,18.37
2018-04-17T14:22:54.428Z,17.60
2018-04-17T14:25:22.038Z,18.90
2018-04-17T14:27:49.652Z,18.20
2018-04-17T14:30:17.264Z,17.30
2018-04-17T14:32:44.874Z,17.20
2018-04-17T14:35:12.497Z,17.80
2018-04-17T14:37:40.099Z,18.43
2018-04-17T14:40:07.750Z,19.13
2018-04-17T14:42:35.371Z,19.50
2018-04-17T14:45:03.009Z,22.10
2018-04-17T14:47:30.625Z,20.33
2018-04-17T14:49:58.257Z,20.00
2018-04-17T14:52:25.866Z,19.70
2018-04-17T14:54:54.229Z,19.37
2018-04-17T14:57:21.866Z,18.03
2018-04-17T14:59:49.547Z,18.40
2018-04-17T15:02:17.146Z,19.77
2018-04-17T15:04:44.778Z,19.00
2018-04-17T15:07:13.165Z,20.33
2018-04-17T15:09:40.785Z,19.00
2018-04-17T15:12:08.400Z,18.27
2018-04-17T15:14:36.010Z,18.87
2018-04-17T15:17:04.754Z,18.73
2018-04-17T15:19:32.479Z,17.83
2018-04-17T15:22:00.105Z,18.20
2018-04-17T15:24:27.759Z,18.73
2018-04-17T15:26:55.393Z,18.43
2018-04-17T15:29:23.814Z,17.77
2018-04-17T15:31:51.471Z,18.10
2018-04-17T15:34:19.112Z,18.07
2018-04-17T15:36:46.719Z,19.30
2018-04-17T15:39:14.319Z,18.03
2018-04-17T15:41:41.926Z,17.83
2018-04-17T15:44:09.522Z,16.80
2018-04-17T15:46:37.928Z,16.07
2018-04-17T15:49:05.602Z,17.33
2018-04-17T15:51:33.206Z,16.73
2018-04-17T15:54:00.817Z,16.43
2018-04-17T15:56:28.427Z,16.87
2018-04-17T15:58:56.034Z,16.40
2018-04-17T16:01:23.634Z,17.00
2018-04-17T16:03:51.250Z,15.70
2018-04-17T16:06:18.846Z,17.53
2018-04-17T16:08:46.474Z,16.07
2018-04-17T16:11:14.123Z,16.60
2018-04-17T16:13:41.722Z,16.27
2018-04-17T16:16:09.326Z,15.53
2018-04-17T16:18:36.982Z,15.07
2018-04-17T16:21:05.354Z,15.40
2018-04-17T16:23:32.954Z,15.63
2018-04-17T16:26:00.590Z,15.10
2018-04-17T16:28:28.958Z,16.07
2018-04-17T16:30:57.438Z,16.23
2018-04-17T16:33:25.831Z,16.67
2018-04-17T16:35:54.278Z,15.57
2018-04-17T16:38:21.900Z,14.57
2018-04-17T16:40:49.562Z,14.77
2018-04-17T16:43:17.251Z,14.83
2018-04-17T16:45:44.949Z,15.53
2018-04-17T16:48:13.346Z,15.77
2018-04-17T16:50:40.966Z,16.00
2018-04-17T16:53:08.591Z,16.10
2018-04-17T16:55:36.247Z,14.93
2018-04-17T16:58:03.890Z,16.77
2018-04-17T17:00:31.558Z,14.27
2018-04-17T17:02:59.300Z,14.23
2018-04-17T17:05:27.727Z,15.23
2018-04-17T17:07:55.330Z,14.47
2018-04-17T17:10:23.777Z,14.07
2018-04-17T17:12:51.435Z,14.00
2018-04-17T17:15:19.057Z,15.10
2018-04-17T17:17:46.786Z,14.60
2018-04-17T17:20:14.453Z,13.80
2018-04-17T17:22:42.861Z,14.73
2018-04-17T17:25:10.590Z,16.27
2018-04-17T17:27:38.195Z,15.53
2018-04-17T17:30:05.806Z,16.30
2018-04-17T17:32:33.567Z,16.00
2018-04-17T17:35:01.765Z,17.63
2018-04-17T17:37:30.174Z,18.30
2018-04-17T17:39:57.846Z,17.33
2018-04-17T17:42:25.445Z,18.07
2018-04-17T17:44:53.050Z,18.57
2018-04-17T17:47:20.747Z,17.87
2018-04-17T17:49:48.473Z,20.23
2018-04-17T17:52:16.114Z,19.13
2018-04-17T17:54:44.531Z,18.83
2018-04-17T17:57:12.187Z,20.53
2018-04-17T17:59:39.845Z,19.50
2018-04-17T18:02:07.498Z,19.77
2018-04-17T18:04:35.091Z,21.10
2018-04-17T18:07:02.767Z,21.13
2018-04-17T18:09:30.382Z,21.83
2018-04-17T18:11:58.749Z,21.47
2018-04-17T18:14:26.359Z,22.73
2018-04-17T18:16:53.990Z,21.87
2018-04-17T18:19:21.598Z,21.57
2018-04-17T18:21:49.217Z,20.93
2018-04-17T18:24:16.827Z,21.23
2018-04-17T18:26:44.439Z,22.07
2018-04-17T18:29:12.036Z,20.20
2018-04-17T18:31:39.670Z,22.33
2018-04-17T18:34:07.266Z,22.20
2018-04-17T18:36:35.638Z,21.50
2018-04-17T18:39:03.347Z,21.27
2018-04-17T18:41:30.951Z,21.67
2018-04-17T18:43:58.556Z,21.37
2018-04-17T18:46:26.252Z,23.73
2018-04-17T18:48:53.857Z,20.77
2018-04-17T18:51:21.457Z,22.07
2018-04-17T18:53:49.068Z,17.67
2018-04-17T18:56:16.712Z,18.27
2018-04-17T18:58:44.380Z,18.33
2018-04-17T19:01:11.986Z,16.10
2018-04-17T19:03:39.587Z,17.50
2018-04-17T19:06:07.192Z,21.63
2018-04-17T19:08:34.877Z,18.10
2018-04-17T19:11:02.527Z,18.33
2018-04-17T19:13:30.118Z,18.73
2018-04-17T19:15:57.722Z,18.00
2018-04-17T19:18:25.327Z,20.67
2018-04-17T19:20:52.918Z,24.53
2018-04-17T19:23:20.571Z,22.60
2018-04-17T19:25:48.170Z,20.40
2018-04-17T19:28:16.534Z,23.27
2018-04-17T19:30:44.197Z,20.10
2018-04-17T19:33:11.842Z,25.23
2018-04-17T19:35:39.446Z,17.90
2018-04-17T19:38:07.150Z,18.13
2018-04-17T19:40:34.742Z,22.20
2018-04-17T19:43:02.367Z,20.37
2018-04-17T19:45:30.033Z,19.87
2018-04-17T19:47:57.609Z,25.03
2018-04-17T19:50:25.215Z,21.00
2018-04-17T19:52:52.826Z,19.07
2018-04-17T19:55:20.426Z,20.90
2018-04-17T19:57:48.057Z,20.23
2018-04-17T20:00:15.678Z,19.83
2018-04-17T20:02:43.281Z,19.73
2018-04-17T20:05:11.152Z,18.37
2018-04-17T20:07:38.762Z,20.57
2018-04-17T20:10:06.357Z,20.27
2018-04-17T20:12:33.994Z,24.33
2018-04-17T20:15:01.628Z,20.67
2018-04-17T20:17:29.234Z,20.27
2018-04-17T20:19:56.881Z,19.40
2018-04-17T20:22:24.491Z,19.27
2018-04-17T20:24:52.097Z,18.00
2018-04-17T20:27:19.697Z,20.80
2018-04-17T20:29:48.103Z,17.30
2018-04-17T20:32:15.717Z,19.27
2018-04-17T20:34:43.322Z,20.27
2018-04-17T20:37:10.940Z,21.80
2018-04-17T20:39:38.543Z,22.90
2018-04-17T20:42:06.139Z,22.67
2018-04-17T20:44:33.762Z,24.87
2018-04-17T20:47:01.362Z,24.80
2018-04-17T20:49:28.959Z,23.70
2018-04-17T20:51:56.594Z,22.93
2018-04-17T20:54:24.235Z,20.77
2018-04-17T20:56:51.858Z,24.03
2018-04-17T20:59:19.493Z,21.77
2018-04-17T21:01:47.138Z,20.83
2018-04-17T21:04:14.738Z,21.63
2018-04-17T21:06:42.342Z,22.83
2018-04-17T21:09:09.938Z,21.77
2018-04-17T21:11:37.539Z,19.77
2018-04-17T21:14:05.145Z,19.40
2018-04-17T21:16:34.270Z,19.70
2018-04-17T21:19:02.634Z,19.57
2018-04-17T21:21:31.010Z,19.03
2018-04-17T21:23:59.382Z,20.33
2018-04-17T21:26:26.999Z,17.37
2018-04-17T21:28:54.628Z,17.97
2018-04-17T21:31:22.227Z,21.07
2018-04-17T21:33:49.822Z,16.63
2018-04-17T21:36:17.442Z,17.10
2018-04-17T21:38:45.039Z,19.23
2018-04-17T21:41:12.666Z,17.80
2018-04-17T21:43:40.307Z,21.47
2018-04-17T21:46:07.903Z,18.77
2018-04-17T21:48:35.497Z,18.30
2018-04-17T21:51:03.131Z,19.93
2018-04-17T21:53:30.735Z,23.57
2018-04-17T21:55:58.336Z,27.10
2018-04-17T21:58:26.758Z,20.17
2018-04-17T22:00:54.385Z,18.90
2018-04-17T22:03:21.982Z,18.73
2018-04-17T22:05:50.384Z,18.93
2018-04-17T22:08:18.002Z,21.50
2018-04-17T22:10:45.626Z,21.67
2018-04-17T22:13:13.243Z,25.40
2018-04-17T22:15:40.845Z,24.10
2018-04-17T22:18:08.455Z,20.53
2018-04-17T22:20:36.066Z,25.70
2018-04-17T22:23:03.675Z,20.37
2018-04-17T22:25:31.318Z,24.13
2018-04-17T22:27:58.934Z,20.67
2018-04-17T22:30:26.534Z,21.57
2018-04-17T22:32:54.154Z,22.37
2018-04-17T22:35:21.771Z,28.23
2018-04-17T22:37:49.393Z,27.37
2018-04-17T22:40:17.003Z,27.33
2018-04-17T22:42:45.399Z,26.23
2018-04-17T22:45:13.027Z,25.60
2018-04-17T22:47:40.633Z,25.63
2018-04-17T22:50:08.319Z,24.70
2018-04-17T22:52:35.929Z,26.47
2018-04-17T22:55:03.528Z,25.47
2018-04-17T22:57:31.150Z,25.07
2018-04-17T22:59:58.762Z,26.33
2018-04-17T23:02:26.378Z,23.57
2018-04-17T23:04:53.990Z,24.53
2018-04-17T23:07:21.606Z,25.50
2018-04-17T23:09:49.202Z,26.17
2018-04-17T23:12:16.809Z,25.77
2018-04-17T23:14:44.420Z,19.33
2018-04-17T23:17:12.028Z,20.17
2018-04-17T23:19:39.645Z,22.93
2018-04-17T23:22:07.239Z,17.33
2018-04-17T23:24:34.850Z,18.17
2018-04-17T23:27:02.464Z,20.30
2018-04-17T23:29:30.094Z,22.93
2018-04-17T23:31:57.706Z,23.17
2018-04-17T23:34:25.334Z,23.37
2018-04-17T23:36:52.934Z,22.57
2018-04-17T23:39:21.302Z,20.53
2018-04-17T23:41:48.914Z,24.83
2018-04-17T23:44:16.510Z,20.63
2018-04-17T23:46:44.144Z,20.53
2018-04-17T23:49:11.762Z,20.50
2018-04-17T23:51:39.358Z,27.00
2018-04-17T23:54:06.950Z,20.53
2018-04-17T23:56:34.575Z,25.90
2018-04-17T23:59:02.173Z,28.43
